AirNav   Air Wisconsin pilot careers
 
 1477 users online  

2K6 Elk County Airport
Moline, Kansas, USA


FAA INFORMATION EFFECTIVE 09 NOVEMBER 2017

Location

FAA Identifier: 2K6
Lat/Long: 37-22-51.3000N / 096-16-16.0000W
37-22.855000N / 096-16.266667W
37.3809167 / -96.2711111
(estimated)
Elevation: 1063 ft. / 324 m (estimated)
Variation: 06E (1985)
From city: 3 miles NE of MOLINE, KS
Time zone: UTC -6 (UTC -5 during Daylight Saving Time)
Zip code: 67345

Airport Operations

Airport use: Open to the public
Activation date: 12/1946
Control tower: no
ARTCC: KANSAS CITY CENTER
FSS: WICHITA FLIGHT SERVICE STATION
NOTAMs facility: ICT (NOTAM-D service available)
Attendance: UNATNDD
Wind indicator: yes
Segmented circle: no

Airport Communications

CTAF: 122.9

Nearby radio navigation aids

VOR radial/distance  VOR name  Freq  Var
BVOr332/35.0BARTLESVILLE VOR/DME117.9008E
CNUr240/35.5CHANUTE VOR/DME109.2005E

 
NDB name  Hdg/Dist  Freq  Var  ID
COFFEYVILLE292/37.621205ECFV -.-. ..-. ...-

Airport Services

Airframe service: NONE
Powerplant service: NONE
Bottled oxygen: NONE
Bulk oxygen: NONE

Runway Information

Runway 18/36

Dimensions: 2510 x 40 ft. / 765 x 12 m
Surface: asphalt, in good condition
Gradient: N.
Operational restrictions: RWY 18/36 HAS CENTERLINE MARKING ONLY
RUNWAY 18  RUNWAY 36
Latitude: 37-23.062255N37-22.649157N
Longitude: 096-16.251918W096-16.279925W
Elevation: 1063.0 ft.1053.0 ft.
Gradient: 0.4% UP
Traffic pattern: leftleft
Runway heading: 177 magnetic, 183 true357 magnetic, 003 true
Markings: NSTD, in good conditionNSTD, in good condition
Obstructions: 41 ft. tree, 1560 ft. from runway, 26 ft. right of centerline, 33:1 slope to clear
OVERGROWN GRASS WATERWAY 20 FT FM RY END. SMALL TREE 25 FT TALL, 115 FT RIGHT OF RWY.
32 ft. pole, 260 ft. from runway, 75 ft. right of centerline, 1:1 slope to clear
+15 FT ROAD AT THLD.

Airport Ownership and Management from official FAA records

Ownership: Publicly-owned
Owner: ELK COUNTY
COURTHOUSE
HOWARD, KS 67349
Phone 620-374-2490
Manager: BYRDEE MILLER
POST OFFICE BOX 623
HOWARD, KS 67349
Phone 620-374-3597

Airport Operational Statistics

Aircraft based on the field: 2
Single engine airplanes: 2
    
Aircraft operations: 10/year *
100% local general aviation
* for 12-month period ending 09 May 2017

Additional Remarks

WILDLIFE ON & INVOF ARPT.

Instrument Procedures

There are no published instrument procedures at 2K6.

Some nearby airports with instrument procedures:

KIDP - Independence Municipal Airport (27 nm SE)
13K - Lt. William M. Milliken Airport (28 nm N)
2K7 - Neodesha Municipal Airport (30 nm E)
KEQA - El Dorado/Captain Jack Thomas Memorial Airport (35 nm NW)
KPPF - Tri-City Airport (37 nm E)
 
Loc | Ops | Rwys | IFR | FBO | Links
Com | Nav | Svcs | Stats | Notes

Kansas City Aviation Department
 
Area around 2K6 (Elk County Airport)
 
Road maps at: MapQuest Bing Google
 
Aerial photo
WARNING: Photo may not be current or correct
Aerial photo of 2K6 (Elk County Airport)
Photo by Eve Cascella
Photo taken 22-Sep-2013
looking north.

Do you have a better or more recent aerial photo of Elk County Airport that you would like to share? If so, please send us your photo.

 
Sectional chart

 
Airport distance calculator
Flying to Elk County Airport? Find the distance to fly.

From to 2K6

Sunrise and sunset
Times for 21-Nov-2017
 Local
(UTC-6)
 Zulu
(UTC)
Morning civil twilight06:4412:44
Sunrise07:1213:12
Sunset17:1023:10
Evening civil twilight17:3823:38

Current date and time
Zulu (UTC)  21-Nov-2017 15:47:36
Local (UTC-6)  21-Nov-2017 09:47:36
 
METAR
KIDP 
27nm SE 
211535Z AUTO 29005KT 10SM CLR 08/02 A2997 RMK AO2 T00820020
KEQA 
35nm NW 
211535Z AUTO 01019G25KT 10SM SCT120 12/M01 A3000 RMK AO2
KPPF 
37nm E 
211452Z AUTO VRB03KT 10SM FEW110 08/02 A2991 RMK AO2 SLP128 T00830022 51025
KCFV 
38nm SE 
211452Z AUTO 19004KT 10SM CLR 08/02 A2991 RMK AO2 SLP130 T00830022 53028
KWLD 
39nm W 
211454Z AUTO 34003KT 10SM FEW120 07/02 A2994 RMK AO2 SLP141 T00720017 53043
KBVO 
39nm S 
211453Z AUTO 00000KT 10SM CLR 07/02 A2994 RMK AO2 SLP134 T00670017 53029
KCNU 
41nm NE 
211452Z AUTO 33004KT 10SM SCT110 08/02 A2994 RMK AO2 PRESRR SLP138 T00780017 53038
K3AU 
42nm NW 
211535Z AUTO 36017G23KT 10SM SCT120 10/M01 A3000 RMK AO2
K1K1 
46nm NW 
211535Z AUTO 01011G26KT 10SM SCT110 10/M02 A3001 RMK AO2 T01011020
KBEC 
49nm NW 
211535Z AUTO 36021G28KT 10SM BKN120 11/M02 A2999 RMK AO2 T01061022
TAF
KBVO 
39nm S 
211120Z 2112/2212 00000KT P6SM BKN250 FM211600 32008KT P6SM BKN100 FM211800 02012G22KT P6SM BKN250 FM220200 01006KT P6SM BKN250
KCNU 
41nm NE 
211139Z 2112/2212 21007KT P6SM BKN120 FM211300 27006KT P6SM BKN110 FM211500 33010KT P6SM BKN110 FM211700 36015G22KT P6SM SCT100 FM220100 36011KT P6SM SKC FM220400 36007KT P6SM SKC
NOTAMs
Click for the latest NOTAMs
NOTAMs are issued by the DoD/FAA and will open in a separate window not controlled by AirNav.

 

 
 

Would you like to see your business listed on this page?

 If your business provides an interesting product or service to pilots, flight crews, aircraft, or users of the Elk County Airport, you should consider listing it here.  To start the listing process, click on the button below
 
Add a business
 

Other Pages about Elk County Airport

Update a link
 
Copyright © AirNav, LLC. All rights reserved. Privacy Policy  Contact